Latest Weather Observations for Maroochydore

IDQ60801

Issued at 8:02 am EST Wednesday 10 February 2016 (issued every 30 minutes, with the page automatically refreshed every 10 minutes)

About weather observations | Map of weather stations | Latest weather observations for QLD | Other Formats
Station Details ID: 040861 Name: SUNSHINE COAST AIRPORT Lat: -26.60 Lon: 153.09 Height: 3.3 m
Data from the previous 72 hours. | See also: Recent months at Maroochydore
Date/Time
EST
Temp
°C
App
Temp
°C
Dew
Point
Rel
Hum
%
Delta-T
°C
Wind Press
QNH
hPa
Press
MSL
hPa
Rain
since 9 am
mm
Dir
 
Spd
km/h
Gust
km/h
Spd
kts
Gust
kts
10/08:00am 21.9 22.8 20.0 89 1.2 S 15 20 8 11 1012.8 - 9.0
10/07:36am 21.2 21.4 20.2 94 0.6 S 19 24 10 13 1012.8 - 9.0
10/07:30am 20.9 21.7 19.9 94 0.6 S 15 22 8 12 1012.8 - 8.8
10/07:00am 20.8 20.9 19.1 90 1.1 SE 17 22 9 12 1012.7 - 4.0
10/06:55am 21.1 21.4 18.7 86 1.5 SE 15 20 8 11 1012.6 - 3.2
10/06:30am 22.1 20.8 18.1 78 2.5 S 22 33 12 18 1011.9 - 1.8
10/06:00am 22.0 21.3 18.2 79 2.4 SSW 19 30 10 16 1011.8 1011.8 1.8
10/05:30am 22.0 21.3 18.6 81 2.1 SSW 20 30 11 16 1011.4 - 1.8
10/05:00am 22.0 21.6 18.8 82 2.0 SSW 19 26 10 14 1011.3 - 1.8
10/04:30am 22.0 21.5 19.0 83 1.9 SSW 20 28 11 15 1011.1 - 1.8
10/04:00am 22.0 21.1 19.0 83 1.9 SSW 22 30 12 16 1011.1 - 1.8
10/03:30am 21.8 20.9 19.0 84 1.8 S 22 30 12 16 1011.1 - 1.8
10/03:00am 21.6 21.2 18.8 84 1.8 S 19 28 10 15 1011.1 1011.1 1.8
10/02:30am 21.5 21.2 19.1 86 1.5 S 19 28 10 15 1011.3 - 1.8
10/02:00am 21.2 20.8 18.9 87 1.4 SSW 19 33 10 18 1011.6 - 1.8
10/01:30am 21.0 23.0 19.1 89 1.2 S 7 11 4 6 1012.2 - 1.8
10/01:00am 21.3 20.8 19.0 87 1.5 S 20 28 11 15 1012.4 - 1.4
10/12:30am 21.5 21.6 19.1 86 1.5 SSW 17 28 9 15 1012.8 - 1.4
10/12:00am 21.4 21.2 19.3 88 1.3 SSW 19 26 10 14 1013.3 1013.3 1.4
 
Date/Time
EST
Temp
°C
App
Temp
°C
Dew
Point
Rel
Hum
%
Delta-T
°C
Wind Press
QNH
hPa
Press
MSL
hPa
Rain
since 9 am
mm
Dir
 
Spd
km/h
Gust
km/h
Spd
kts
Gust
kts
09/11:30pm 21.6 21.4 19.3 87 1.5 S 19 28 10 15 1013.5 - 1.4
09/11:00pm 21.7 21.3 19.4 87 1.5 S 20 24 11 13 1013.8 - 1.4
09/10:30pm 21.8 21.2 19.7 88 1.3 S 22 28 12 15 1014.3 - 1.4
09/10:00pm 21.7 21.1 19.8 89 1.2 S 22 30 12 16 1014.9 - 1.4
09/09:30pm 21.4 20.6 20.0 92 0.9 S 24 35 13 19 1015.0 - 1.4
09/09:00pm 22.3 19.5 19.5 84 1.8 SSE 33 46 18 25 1015.1 1015.1 1.2
09/08:35pm 22.7 21.0 19.7 83 1.9 SSE 28 46 15 25 1014.9 - 1.0
09/08:30pm 22.5 19.8 19.3 82 2.0 SE 32 46 17 25 1014.9 - 1.0
09/08:26pm 23.4 19.7 19.1 77 2.7 SE 37 46 20 25 1014.9 - 0.8
09/08:00pm 24.4 21.9 18.1 68 4.0 SSE 28 43 15 23 1014.6 - 0.8
09/07:30pm 24.9 21.4 17.9 65 4.4 SSE 33 46 18 25 1014.6 - 0.8
09/07:00pm 24.9 22.3 18.6 68 4.0 SSE 30 43 16 23 1014.3 - 0.8
09/06:30pm 25.1 21.7 17.6 63 4.7 SSE 32 41 17 22 1014.0 - 0.8
09/06:00pm 25.3 21.9 18.2 64 4.5 SE 33 46 18 25 1013.6 1013.6 0.8
09/05:30pm 26.1 22.3 17.2 58 5.5 SE 33 48 18 26 1013.2 - 0.8
09/05:00pm 26.5 22.9 18.6 62 5.0 SE 35 50 19 27 1013.1 - -
09/04:30pm 26.6 22.9 17.4 57 5.8 SE 33 46 18 25 1013.1 - 0.8
09/04:00pm 27.4 23.6 18.1 57 5.9 SE 35 46 19 25 1013.2 - 0.8
09/03:30pm 27.6 23.8 18.0 55 6.1 SE 35 44 19 24 1013.3 - 0.8
09/03:00pm 28.0 24.1 17.8 54 6.5 SE 35 44 19 24 1013.4 1013.4 0.8
09/02:30pm 28.2 24.7 17.4 52 6.8 SE 32 44 17 24 1013.5 - 0.8
09/02:00pm 28.5 25.5 19.1 56 6.1 SE 33 46 18 25 1013.6 - 0.8
09/01:30pm 27.9 24.2 17.4 52 6.6 SE 33 44 18 24 1013.9 - 0.8
09/01:00pm 28.3 25.1 18.1 54 6.5 SE 32 43 17 23 1014.1 - 0.8
09/12:38pm 28.3 24.4 19.5 59 5.7 SE 39 46 21 25 1014.2 - 0.8
09/12:30pm 28.9 25.5 18.1 52 6.9 SSE 33 46 18 25 1014.1 - 0.8
09/12:00pm 26.1 24.3 20.4 71 3.7 SSE 30 37 16 20 1014.2 1014.2 0.8
09/11:30am 28.2 24.5 18.3 55 6.3 SSE 35 46 19 25 1014.3 - 0.8
09/11:00am 26.6 22.6 16.8 55 6.1 SSE 33 46 18 25 1014.4 - 0.6
09/10:30am 26.4 23.8 17.7 58 5.5 SSE 28 41 15 22 1014.7 - 0.6
09/10:00am 25.1 22.4 19.2 70 3.8 SSE 32 44 17 24 1015.0 - 0.6
09/09:30am 23.9 22.1 20.4 81 2.3 SSE 30 46 16 25 1015.3 - 0.6
09/09:19am 23.5 24.8 21.6 89 1.3 SSE 17 35 9 19 1015.2 - 0.6
09/09:09am 22.3 23.5 20.6 90 1.1 SSE 15 22 8 12 1015.2 - 0.6
09/09:00am 22.3 22.6 19.7 85 1.7 SSE 17 32 9 17 1015.2 1015.2 0.4
09/08:30am 23.9 23.3 18.5 72 3.4 S 19 30 10 16 1014.9 - 0.0
09/08:00am 23.9 22.1 18.8 73 3.2 S 26 33 14 18 1014.8 - 0.0
09/07:30am 23.5 22.8 18.6 74 3.1 S 20 28 11 15 1014.6 - 0.0
09/07:00am 21.7 20.7 17.9 79 2.4 S 20 28 11 15 1014.4 - 0.0
09/06:30am 21.8 20.3 17.8 78 2.5 S 22 33 12 18 1014.2 - 0.0
09/06:00am 21.5 20.4 17.7 79 2.3 S 20 30 11 16 1013.9 1013.9 0.0
09/05:30am 21.5 20.4 17.7 79 2.3 S 20 28 11 15 1013.4 - 0.0
09/05:00am 21.7 21.2 17.7 78 2.5 S 17 24 9 13 1013.2 - 0.0
09/04:30am 22.3 21.2 17.4 74 3.0 SSW 19 26 10 14 1013.0 - 0.0
09/04:00am 22.1 21.1 17.5 75 2.8 SSW 19 24 10 13 1012.7 - 0.0
09/03:30am 22.3 22.3 18.1 77 2.6 SSW 15 22 8 12 1012.7 - 0.0
09/03:00am 22.4 22.2 18.4 78 2.5 S 17 22 9 12 1012.7 1012.7 0.0
09/02:30am 23.0 22.5 18.7 77 2.7 S 19 28 10 15 1012.7 - 0.0
09/02:00am 23.3 22.7 18.8 76 2.8 S 20 26 11 14 1012.9 - 0.0
09/01:30am 23.2 23.3 19.1 78 2.6 S 17 24 9 13 1013.0 - 0.0
09/01:00am 23.0 22.3 18.7 77 2.7 S 20 30 11 16 1013.1 - 0.0
09/12:30am 23.6 22.6 18.9 75 3.0 S 22 39 12 21 1013.6 - 0.0
09/12:00am 23.5 22.5 18.8 75 3.0 S 22 28 12 15 1013.9 1013.9 0.0
 
Date/Time
EST
Temp
°C
App
Temp
°C
Dew
Point
Rel
Hum
%
Delta-T
°C
Wind Press
QNH
hPa
Press
MSL
hPa
Rain
since 9 am
mm
Dir
 
Spd
km/h
Gust
km/h
Spd
kts
Gust
kts
08/11:30pm 24.0 23.5 19.1 74 3.1 S 20 28 11 15 1014.1 - 0.0
08/11:00pm 24.4 23.2 19.2 73 3.3 SSE 24 41 13 22 1014.4 - 0.0
08/10:30pm 24.6 21.7 18.8 70 3.7 SSE 32 46 17 25 1014.4 - 0.0
08/10:00pm 24.5 21.7 19.1 72 3.4 SSE 32 48 17 26 1014.4 - 0.0
08/09:35pm 24.6 22.6 19.2 72 3.5 SSE 28 46 15 25 1014.4 - 0.0
08/09:30pm 24.7 22.8 19.3 72 3.5 SSE 28 41 15 22 1014.4 - 0.0
08/09:00pm 24.8 23.5 19.8 74 3.2 SSE 26 39 14 21 1014.5 1014.5 0.0
08/08:30pm 24.9 23.2 19.9 74 3.2 SE 28 41 15 22 1014.5 - 0.0
08/08:00pm 25.3 23.3 19.2 69 3.9 SSE 28 41 15 22 1014.1 - 0.0
08/07:30pm 24.9 24.2 20.2 75 3.1 SSE 24 33 13 18 1013.7 - 0.0
08/07:00pm 25.0 23.5 19.4 71 3.6 SSE 26 37 14 20 1013.4 - 0.0
08/06:30pm 25.3 24.1 20.1 73 3.4 SE 26 39 14 21 1013.2 - 0.0
08/06:00pm 24.9 23.8 19.5 72 3.5 SE 24 33 13 18 1013.0 1013.0 0.0
08/05:30pm 25.8 24.9 19.9 70 3.8 SE 24 33 13 18 1012.6 - 0.0
08/05:00pm 26.8 24.8 19.2 63 4.9 SE 28 35 15 19 1012.3 - 0.0
08/04:30pm 27.6 26.5 20.2 64 4.8 SE 26 35 14 19 1012.4 - 0.0
08/04:00pm 27.4 26.4 19.7 63 5.0 SE 24 32 13 17 1012.4 - 0.0
08/03:30pm 28.3 27.6 20.3 62 5.3 SE 24 32 13 17 1012.6 - 0.0
08/03:00pm 27.8 26.4 18.8 58 5.8 SE 24 32 13 17 1012.7 1012.7 0.0
08/02:30pm 28.5 27.0 19.4 57 5.9 SE 26 35 14 19 1013.1 - 0.0
08/02:00pm 27.4 25.3 18.9 59 5.5 SE 28 39 15 21 1013.3 - 0.0
08/01:30pm 28.3 26.0 18.4 55 6.3 SE 28 35 15 19 1013.5 - 0.0
08/01:00pm 28.2 25.8 17.4 52 6.8 SE 26 33 14 18 1013.7 - 0.0
08/12:30pm 28.8 27.1 18.0 52 6.9 SE 24 32 13 17 1013.9 - 0.0
08/12:00pm 28.5 26.4 18.0 53 6.7 SSE 26 33 14 18 1014.0 1014.0 0.0
08/11:30am 28.4 26.2 17.9 53 6.7 SSE 26 35 14 19 1014.3 - 0.0
08/11:00am 28.1 25.9 17.9 54 6.5 SSE 26 35 14 19 1014.6 - 0.0
08/10:30am 27.4 24.6 17.3 54 6.3 SSE 28 37 15 20 1014.7 - 0.0
08/10:00am 26.9 25.2 18.2 59 5.5 SSE 24 32 13 17 1015.1 - 0.0
08/09:30am 26.2 24.6 18.3 61 5.0 S 24 35 13 19 1015.1 - 0.0
08/09:00am 25.6 24.6 18.0 63 4.8 S 20 28 11 15 1015.0 1015.0 1.2
08/08:30am 25.5 23.3 17.9 63 4.8 S 26 32 14 17 1015.0 - 1.2
08/08:00am 24.7 22.9 17.9 66 4.3 S 24 30 13 16 1014.9 - 1.2
08/07:30am 24.8 23.6 18.3 67 4.1 S 22 30 12 16 1014.8 - 1.2
08/07:00am 23.5 22.4 17.7 70 3.6 S 20 28 11 15 1014.4 - 1.2
08/06:30am 22.2 21.0 17.1 73 3.1 S 19 22 10 12 1014.3 - 1.2
08/06:00am 21.8 21.0 17.0 74 2.9 S 17 26 9 14 1014.1 1014.1 1.2
08/05:30am 21.3 20.1 17.1 77 2.6 SSW 19 24 10 13 1013.5 - 1.2
08/05:00am 21.5 20.8 17.3 77 2.6 S 17 20 9 11 1013.2 - 1.2
08/04:30am 21.7 20.6 17.7 78 2.5 S 20 28 11 15 1013.2 - 1.2
08/04:00am 21.4 20.8 17.6 79 2.3 S 17 20 9 11 1013.2 - 1.2
08/03:30am 21.4 21.0 17.2 77 2.6 SSW 15 20 8 11 1013.5 - 1.2
08/03:00am 21.6 21.2 17.2 76 2.7 SSW 15 20 8 11 1013.5 1013.5 1.2
08/02:30am 21.8 21.1 17.4 76 2.7 SSW 17 24 9 13 1013.6 - 1.2
08/02:00am 22.1 21.9 17.7 76 2.7 SSW 15 20 8 11 1013.7 - 1.2
08/01:30am 22.4 22.0 18.0 76 2.7 SSW 17 22 9 12 1013.7 - 1.2
08/01:00am 23.1 22.2 18.2 74 3.1 S 20 30 11 16 1013.7 - 1.2
08/12:30am 23.7 23.3 19.0 75 3.0 S 19 28 10 15 1014.1 - 1.2
08/12:00am 23.6 23.6 19.7 79 2.5 S 19 24 10 13 1014.5 1014.5 1.2
 
Date/Time
EST
Temp
°C
App
Temp
°C
Dew
Point
Rel
Hum
%
Delta-T
°C
Wind Press
QNH
hPa
Press
MSL
hPa
Rain
since 9 am
mm
Dir
 
Spd
km/h
Gust
km/h
Spd
kts
Gust
kts
07/11:30pm 24.1 24.3 20.2 79 2.5 SSE 19 28 10 15 1014.6 - 1.2
07/11:00pm 24.6 23.7 19.9 75 3.0 SSE 24 32 13 17 1014.7 - 1.2
07/10:30pm 24.6 24.0 19.7 74 3.2 SSE 22 30 12 16 1014.5 - 1.2
07/10:00pm 24.7 24.3 20.2 76 2.9 SSE 22 32 12 17 1014.4 - 1.2
07/09:30pm 24.6 24.0 19.7 74 3.2 SSE 22 32 12 17 1014.3 - 1.2
07/09:00pm 24.6 23.1 19.4 73 3.3 SSE 26 37 14 20 1014.2 1014.2 1.2
07/08:30pm 24.3 23.2 19.4 74 3.1 SSE 24 32 13 17 1014.1 - 1.2
07/08:00pm 24.5 22.9 19.3 73 3.3 SSE 26 37 14 20 1013.8 - 1.2
07/07:30pm 24.5 22.3 18.7 70 3.7 SSE 28 41 15 22 1013.7 - 1.2
07/07:00pm 24.8 22.0 18.3 67 4.1 SSE 30 43 16 23 1013.5 - 1.2
07/06:30pm 24.8 22.6 18.7 69 3.9 SSE 28 35 15 19 1013.1 - 1.2
07/06:00pm 25.0 23.4 19.1 70 3.8 SSE 26 41 14 22 1012.9 1012.9 1.2
07/05:30pm 25.0 23.8 20.0 74 3.2 SSE 26 39 14 21 1012.5 - 1.2
07/05:00pm 24.8 22.5 20.1 75 3.0 SSE 32 44 17 24 1012.1 - 1.2
07/04:30pm 25.5 23.4 20.5 74 3.3 SSE 32 43 17 23 1011.8 - 1.2
07/04:00pm 25.8 24.2 20.1 71 3.7 SSE 28 37 15 20 1011.7 - 1.2
07/03:30pm 27.2 26.6 21.9 73 3.6 SSE 28 37 15 20 1011.5 - 1.2
07/03:00pm 25.6 24.7 22.1 81 2.3 SSE 30 39 16 21 1011.6 1011.6 1.2
07/02:30pm 24.5 24.0 21.4 83 2.0 SSE 26 39 14 21 1011.8 - 1.2
07/02:22pm 24.2 24.0 21.3 84 1.9 SSE 24 39 13 21 1012.0 - 1.2
07/02:06pm 24.0 23.9 22.3 90 1.1 SE 26 35 14 19 1012.2 - 1.0
07/02:00pm 24.9 24.4 22.2 85 1.8 SE 28 39 15 21 1012.2 - 1.0
07/01:56pm 25.0 24.4 21.9 83 2.1 SSE 28 39 15 21 1012.2 - 1.0
07/01:43pm 24.1 22.8 22.4 90 1.1 SE 33 52 18 28 1012.4 - 1.0
07/01:40pm 23.6 21.4 21.5 88 1.4 SE 35 52 19 28 1012.4 - 1.0
07/01:34pm 25.0 23.7 20.7 77 2.8 SSE 28 48 15 26 1012.2 - 1.0
07/01:30pm 26.4 25.5 20.7 71 3.7 SSE 26 35 14 19 1012.2 - 1.0
07/01:00pm 24.8 23.6 21.5 82 2.2 SSE 30 43 16 23 1012.5 - 1.0
07/12:30pm 26.2 24.2 20.7 71 3.6 SSE 32 46 17 25 1012.3 - 1.0
07/12:00pm 26.0 24.6 21.2 75 3.2 SSE 30 43 16 23 1012.5 1012.5 1.0
07/11:30am 26.3 25.2 21.7 76 3.1 SSE 30 44 16 24 1012.4 - 1.0
07/11:00am 25.6 24.5 22.5 83 2.1 S 32 41 17 22 1012.4 - 1.0
07/10:30am 24.3 24.3 21.6 85 1.8 S 24 39 13 21 1012.5 - 1.0
07/10:28am 24.4 24.7 22.3 88 1.4 S 24 39 13 21 1012.5 - 1.0
07/10:12am 23.7 23.5 22.0 90 1.1 SSE 26 35 14 19 1012.7 - 1.0
07/10:00am 24.5 24.0 22.9 91 1.1 SSE 30 50 16 27 1012.6 - 0.8
07/09:56am 24.2 23.0 22.3 89 1.3 SSE 32 50 17 27 1012.6 - 0.8
07/09:54am 24.1 22.6 21.8 87 1.5 SSE 32 41 17 22 1012.6 - 0.8
07/09:30am 23.3 22.5 21.6 90 1.1 SSE 28 37 15 20 1012.6 - 0.4
07/09:27am 23.4 22.5 21.5 89 1.3 SSE 28 37 15 20 1012.6 - 0.2
07/09:00am 24.4 24.1 21.9 86 1.7 SSE 26 39 14 21 1012.5 1012.5 4.0
07/08:44am 23.9 24.4 22.0 89 1.3 S 22 32 12 17 1012.5 - 4.0
07/08:30am 23.2 24.8 22.2 94 0.7 S 17 20 9 11 1012.5 - 4.0
07/08:24am 22.9 24.7 21.9 94 0.7 S 15 17 8 9 1012.5 - 4.0
07/08:10am 22.8 25.1 22.0 95 0.5 S 13 17 7 9 1012.6 - 4.0

Other Formats:

Comma delimited format used in spreadsheet applications
http://www.bom.gov.au/fwo/IDQ60801/IDQ60801.94569.axf

JavaScript Object Notation format (JSON) in row-major order
http://www.bom.gov.au/fwo/IDQ60801/IDQ60801.94569.json